Time;durP1;ratioP1;P1;durP2;ratioP2;P2;SDS_P1;SDS_P2;PMS_P1;PMS_P2;Temp;Humidity;BMP_temperature;BMP_pressure;BME280_temperature;BME280_humidity;BME280_pressure;Samples;Min_cycle;Max_cycle;Signal;HPM_P1;HPM_P2
2022/01/12 00:00:53;;;;;;;8.27;5.43;;;2.70;99.90;;;;;;5070295;28;20558;-64
2022/01/12 00:03:20;;;;;;;8.33;5.40;;;2.70;99.90;;;;;;5070968;28;20464;-64
2022/01/12 00:05:48;;;;;;;7.60;4.63;;;2.70;99.90;;;;;;5070420;28;20851;-65
2022/01/12 00:08:15;;;;;;;8.37;5.10;;;2.80;99.90;;;;;;5070315;28;20452;-65
2022/01/12 00:10:43;;;;;;;9.90;5.80;;;2.90;99.90;;;;;;5070433;28;20459;-64
2022/01/12 00:13:10;;;;;;;10.80;5.50;;;2.80;99.90;;;;;;5070374;28;21013;-64
2022/01/12 00:15:39;;;;;;;10.17;6.00;;;2.90;99.90;;;;;;5070812;28;20462;-64
2022/01/12 00:18:06;;;;;;;9.90;5.87;;;2.80;99.90;;;;;;5070636;28;20471;-64
2022/01/12 00:20:33;;;;;;;8.90;4.80;;;2.70;99.90;;;;;;5070565;28;20485;-65
2022/01/12 00:23:01;;;;;;;10.10;5.53;;;2.70;99.90;;;;;;5070056;28;20484;-64
2022/01/12 00:25:34;;;;;;;9.27;4.93;;;2.80;99.90;;;;;;5070550;28;20838;-65
2022/01/12 00:33:31;;;;;;;9.00;5.10;;;2.70;99.90;;;;;;5070610;28;20512;-65
2022/01/12 00:35:59;;;;;;;10.57;6.20;;;2.80;99.90;;;;;;5069945;28;20999;-65
2022/01/12 00:38:29;;;;;;;10.87;5.77;;;2.70;99.90;;;;;;5069896;28;20530;-64
2022/01/12 00:40:57;;;;;;;8.17;4.80;;;2.60;99.90;;;;;;5070341;28;20489;-64
2022/01/12 00:43:29;;;;;;;7.10;4.40;;;2.70;99.90;;;;;;5070075;28;20941;-65
2022/01/12 00:45:57;;;;;;;8.87;6.00;;;2.70;99.90;;;;;;5070312;28;20452;-65
2022/01/12 00:48:24;;;;;;;7.50;4.80;;;2.70;99.90;;;;;;5070043;28;20965;-65
2022/01/12 00:50:52;;;;;;;9.77;6.17;;;2.70;99.90;;;;;;5070003;28;20537;-65
2022/01/12 00:53:20;;;;;;;9.23;4.80;;;2.50;99.90;;;;;;5069687;28;21009;-65
2022/01/12 00:55:47;;;;;;;9.83;6.13;;;2.60;99.90;;;;;;5070078;28;20445;-65
2022/01/12 00:58:14;;;;;;;9.20;5.73;;;2.50;99.90;;;;;;5069381;28;20603;-65
2022/01/12 01:00:41;;;;;;;8.00;5.37;;;2.60;99.90;;;;;;5069586;28;20527;-65
2022/01/12 01:03:10;;;;;;;10.00;5.20;;;2.70;99.90;;;;;;5069771;28;20530;-64
2022/01/12 01:05:38;;;;;;;8.10;4.83;;;2.70;99.90;;;;;;5069631;28;20555;-64
2022/01/12 01:08:05;;;;;;;11.00;5.50;;;2.80;99.90;;;;;;5069652;28;20858;-64
2022/01/12 01:10:44;;;;;;;8.27;5.30;;;2.80;99.90;;;;;;5069773;28;20452;-65
2022/01/12 01:13:13;;;;;;;9.93;5.13;;;2.70;99.90;;;;;;5069727;28;20445;-64
2022/01/12 01:15:59;;;;;;;10.13;5.70;;;2.70;99.90;;;;;;5069539;28;20484;-64
2022/01/12 01:26:46;;;;;;;9.90;5.50;;;2.70;99.90;;;;;;5069594;28;20478;-64
2022/01/12 01:29:13;;;;;;;10.83;5.47;;;2.80;99.90;;;;;;5069420;28;20474;-64
2022/01/12 01:31:42;;;;;;;9.37;4.77;;;2.90;99.90;;;;;;5069555;28;20449;-64
2022/01/12 01:34:13;;;;;;;10.47;5.20;;;2.80;99.90;;;;;;5069553;28;20448;-65
2022/01/12 01:36:42;;;;;;;8.97;5.10;;;2.70;99.90;;;;;;5069620;28;20541;-64
2022/01/12 01:39:11;;;;;;;8.73;5.23;;;2.80;99.90;;;;;;5069093;28;20997;-64
2022/01/12 01:41:41;;;;;;;9.93;5.43;;;2.70;99.90;;;;;;5069380;28;20834;-64
2022/01/12 01:44:33;;;;;;;8.00;4.90;;;2.70;99.90;;;;;;5069270;28;20590;-64
2022/01/12 01:55:14;;;;;;;8.77;4.60;;;2.50;99.90;;;;;;5069325;28;20555;-64
2022/01/12 01:57:42;;;;;;;8.43;5.13;;;2.60;99.90;;;;;;5069215;28;20508;-64
2022/01/12 02:00:12;;;;;;;9.60;5.27;;;2.70;99.90;;;;;;5068835;28;20994;-64
2022/01/12 02:02:39;;;;;;;7.07;4.17;;;2.80;99.90;;;;;;5069129;28;20484;-64
2022/01/12 02:05:08;;;;;;;14.60;4.93;;;2.80;99.90;;;;;;5071594;28;20526;-64
2022/01/12 02:07:36;;;;;;;8.20;4.73;;;2.60;99.90;;;;;;5073335;28;21004;-65
2022/01/12 02:10:04;;;;;;;7.93;4.67;;;2.60;99.90;;;;;;5073054;28;20522;-64
2022/01/12 02:12:31;;;;;;;7.40;5.10;;;2.50;99.90;;;;;;5073103;28;20456;-65
2022/01/12 02:15:00;;;;;;;8.80;5.27;;;2.60;99.90;;;;;;5072760;28;20520;-65
2022/01/12 02:17:33;;;;;;;7.63;4.57;;;2.60;99.90;;;;;;5072977;28;20455;-64
2022/01/12 02:20:24;;;;;;;8.33;4.33;;;2.70;99.90;;;;;;5072730;28;20848;-65
2022/01/12 02:36:56;;;;;;;9.53;4.27;;;2.50;99.90;;;;;;5072861;28;20434;-63
2022/01/12 02:42:10;;;;;;;9.43;4.63;;;2.40;99.90;;;;;;5072561;28;20429;-63
2022/01/12 02:55:54;;;;;;;9.73;4.40;;;2.30;99.90;;;;;;4990193;28;21055;-65
2022/01/12 02:58:21;;;;;;;8.70;4.40;;;2.30;99.90;;;;;;5052440;28;20483;-64
2022/01/12 03:01:07;;;;;;;8.33;4.20;;;2.30;99.90;;;;;;5071379;28;21000;-64
2022/01/12 03:03:36;;;;;;;8.60;4.67;;;2.20;99.90;;;;;;5072081;28;20465;-64
2022/01/12 03:06:05;;;;;;;8.20;5.10;;;2.10;99.90;;;;;;5071574;28;20463;-64
2022/01/12 03:08:36;;;;;;;9.50;5.13;;;2.20;99.90;;;;;;5071746;28;20482;-64
2022/01/12 03:11:06;;;;;;;8.40;5.20;;;2.20;99.90;;;;;;5071993;28;20539;-64
2022/01/12 03:13:34;;;;;;;9.90;5.47;;;2.10;99.90;;;;;;5071959;28;20460;-64
2022/01/12 03:16:02;;;;;;;11.60;5.90;;;2.10;99.90;;;;;;5070794;28;20796;-64
2022/01/12 03:18:29;;;;;;;9.33;5.80;;;2.10;99.90;;;;;;5072098;28;21064;-64
2022/01/12 03:20:56;;;;;;;10.00;5.43;;;2.00;99.90;;;;;;5071752;28;20886;-63
2022/01/12 03:23:23;;;;;;;9.20;5.80;;;1.90;99.90;;;;;;5071874;28;20453;-64
2022/01/12 03:25:50;;;;;;;9.40;5.73;;;1.90;99.90;;;;;;5071844;28;20800;-65
2022/01/12 03:28:19;;;;;;;9.63;5.77;;;2.00;99.90;;;;;;5071180;28;20535;-65
2022/01/12 03:30:54;;;;;;;9.23;5.20;;;2.10;99.90;;;;;;5071804;28;20495;-65
2022/01/12 03:33:38;;;;;;;9.27;5.40;;;2.20;99.90;;;;;;5071573;28;20461;-65
2022/01/12 03:38:51;;;;;;;10.20;4.80;;;2.20;99.90;;;;;;5071514;28;20955;-65
2022/01/12 03:41:18;;;;;;;10.37;5.20;;;2.20;99.90;;;;;;5070783;28;20480;-65
2022/01/12 03:43:48;;;;;;;10.03;6.27;;;2.30;99.90;;;;;;5071330;28;20521;-65
2022/01/12 03:46:17;;;;;;;8.30;4.83;;;2.20;99.90;;;;;;5071608;28;20456;-65
2022/01/12 03:48:44;;;;;;;8.47;4.67;;;2.00;99.90;;;;;;5071365;28;20470;-65
2022/01/12 03:51:11;;;;;;;6.80;4.20;;;1.90;99.90;;;;;;5071279;28;20463;-65
2022/01/12 03:53:38;;;;;;;9.47;5.47;;;1.80;99.90;;;;;;5071330;28;20514;-64
2022/01/12 03:56:05;;;;;;;10.97;5.47;;;1.70;99.90;;;;;;5071181;28;20459;-64
2022/01/12 03:58:32;;;;;;;10.70;4.80;;;1.70;99.90;;;;;;5070533;28;20522;-64
2022/01/12 04:01:01;;;;;;;11.50;5.27;;;1.90;99.90;;;;;;5070544;28;20563;-64
2022/01/12 04:03:29;;;;;;;9.97;4.70;;;1.90;99.90;;;;;;5071137;28;20463;-64
2022/01/12 04:08:41;;;;;;;9.57;5.10;;;2.00;99.90;;;;;;5070909;28;20820;-65
2022/01/12 04:11:08;;;;;;;10.37;6.30;;;2.10;99.90;;;;;;5070379;28;21014;-64
2022/01/12 04:13:35;;;;;;;8.27;4.90;;;2.20;99.90;;;;;;5070829;28;20553;-65
2022/01/12 04:16:05;;;;;;;8.83;5.40;;;2.20;99.90;;;;;;5071092;28;20453;-65
2022/01/12 04:18:33;;;;;;;8.50;4.83;;;2.10;99.90;;;;;;5070864;28;20824;-64
2022/01/12 04:21:02;;;;;;;8.20;4.90;;;2.00;99.90;;;;;;5070880;28;20970;-64
2022/01/12 04:23:30;;;;;;;9.73;5.97;;;1.90;99.90;;;;;;5070568;28;20555;-66
2022/01/12 04:25:59;;;;;;;10.40;5.83;;;1.90;99.90;;;;;;5070312;28;20445;-64
2022/01/12 04:28:28;;;;;;;12.03;7.40;;;2.00;99.90;;;;;;5069935;28;20969;-64
2022/01/12 04:30:57;;;;;;;11.73;6.57;;;2.00;99.90;;;;;;5070113;28;20450;-64
2022/01/12 04:33:25;;;;;;;12.27;5.93;;;2.10;99.90;;;;;;5070495;28;20453;-65
2022/01/12 04:35:54;;;;;;;8.47;5.20;;;2.20;99.90;;;;;;5070232;28;20476;-64
2022/01/12 04:38:23;;;;;;;11.53;5.90;;;2.30;99.90;;;;;;5069914;28;20481;-64
2022/01/12 04:40:50;;;;;;;10.30;5.87;;;2.30;99.90;;;;;;5070283;28;20484;-64
2022/01/12 04:43:18;;;;;;;9.63;5.80;;;2.30;99.90;;;;;;5070219;28;20480;-64
2022/01/12 04:46:08;;;;;;;10.37;5.10;;;2.30;99.90;;;;;;5070193;28;20551;-67
2022/01/12 04:51:34;;;;;;;12.73;7.07;;;2.40;99.90;;;;;;5044375;28;20440;-65
2022/01/12 04:54:01;;;;;;;15.10;7.07;;;2.30;99.90;;;;;;5069949;28;20495;-64
2022/01/12 04:56:29;;;;;;;8.47;5.27;;;2.30;99.90;;;;;;5070045;28;20848;-64
2022/01/12 04:58:56;;;;;;;11.03;6.77;;;2.20;99.90;;;;;;5069762;28;20501;-65
2022/01/12 05:01:26;;;;;;;9.63;6.33;;;2.20;99.90;;;;;;5069481;28;20504;-65
2022/01/12 05:06:47;;;;;;;9.03;4.87;;;2.20;99.90;;;;;;5069772;28;20523;-66
2022/01/12 05:09:28;;;;;;;9.13;5.70;;;2.20;99.90;;;;;;5069803;28;20820;-64
2022/01/12 05:14:47;;;;;;;11.13;5.70;;;2.20;99.90;;;;;;5069839;28;20935;-66
2022/01/12 05:17:14;;;;;;;8.57;5.57;;;2.10;99.90;;;;;;5069276;28;20450;-65
2022/01/12 05:19:42;;;;;;;11.17;5.63;;;2.00;99.90;;;;;;5069561;28;20825;-64
2022/01/12 05:22:09;;;;;;;8.63;5.70;;;1.90;99.90;;;;;;5069511;28;20494;-69
2022/01/12 05:24:36;;;;;;;8.00;4.87;;;1.90;99.90;;;;;;5069522;28;20493;-68
2022/01/12 05:27:04;;;;;;;10.37;6.17;;;1.80;99.90;;;;;;5069085;28;20459;-68
2022/01/12 05:29:31;;;;;;;9.37;5.67;;;1.80;99.90;;;;;;5068981;28;20547;-68
2022/01/12 05:31:58;;;;;;;8.83;4.97;;;1.80;99.90;;;;;;5069344;28;20451;-68
2022/01/12 05:34:26;;;;;;;8.53;4.93;;;1.90;99.90;;;;;;5069384;28;20479;-65
2022/01/12 05:36:55;;;;;;;9.50;5.90;;;1.80;99.90;;;;;;5069400;28;20557;-71
2022/01/12 05:39:22;;;;;;;10.27;5.57;;;1.90;99.90;;;;;;5068675;28;20897;-69
2022/01/12 05:41:49;;;;;;;10.63;5.13;;;1.90;99.90;;;;;;5069426;28;20482;-70
2022/01/12 05:44:16;;;;;;;9.30;5.50;;;1.80;99.90;;;;;;5069518;28;20452;-65
2022/01/12 05:46:44;;;;;;;9.90;5.73;;;1.80;99.90;;;;;;5069165;28;20463;-65
2022/01/12 05:51:56;;;;;;;10.40;5.03;;;2.00;99.90;;;;;;5069565;28;20934;-67
2022/01/12 05:54:23;;;;;;;9.97;6.60;;;2.00;99.90;;;;;;5069554;28;20547;-68
2022/01/12 05:56:51;;;;;;;10.17;6.07;;;1.90;99.90;;;;;;5069406;28;20453;-69
2022/01/12 05:59:19;;;;;;;9.40;5.00;;;1.90;99.90;;;;;;5069107;28;20473;-70
2022/01/12 06:01:46;;;;;;;10.70;5.60;;;2.00;99.90;;;;;;5068962;28;20993;-69
2022/01/12 06:04:14;;;;;;;8.10;5.20;;;1.90;99.90;;;;;;5069029;28;20455;-70
2022/01/12 06:06:41;;;;;;;8.43;5.23;;;2.00;99.90;;;;;;5069165;28;20890;-65
2022/01/12 06:09:10;;;;;;;10.70;5.13;;;2.00;99.90;;;;;;5069138;28;20483;-64
2022/01/12 06:11:37;;;;;;;10.03;5.33;;;2.00;99.90;;;;;;5068734;28;20441;-66
2022/01/12 06:14:05;;;;;;;8.07;4.63;;;2.00;99.90;;;;;;5068613;28;20502;-65
2022/01/12 06:16:32;;;;;;;8.97;5.50;;;2.10;99.90;;;;;;5069105;28;20464;-70
2022/01/12 06:18:59;;;;;;;10.33;5.60;;;2.10;99.90;;;;;;5068792;28;20478;-69
2022/01/12 06:21:26;;;;;;;8.63;6.17;;;2.00;99.90;;;;;;5069210;28;20574;-69
2022/01/12 06:23:53;;;;;;;11.57;6.20;;;2.00;99.90;;;;;;5069102;28;20975;-70
2022/01/12 06:26:25;;;;;;;11.43;6.40;;;2.10;99.90;;;;;;5068755;28;20460;-70
2022/01/12 06:29:22;;;;;;;9.30;5.90;;;2.20;99.90;;;;;;5068816;28;20485;-67
2022/01/12 06:31:51;;;;;;;10.07;6.80;;;1.90;99.90;;;;;;5069010;28;20522;-68
2022/01/12 06:34:18;;;;;;;10.90;6.50;;;2.10;99.90;;;;;;5068731;28;21034;-69
2022/01/12 06:36:46;;;;;;;11.27;6.37;;;2.20;99.90;;;;;;5068770;28;20464;-69
2022/01/12 06:39:17;;;;;;;11.80;6.43;;;1.90;99.90;;;;;;5068362;28;20475;-70
2022/01/12 06:41:45;;;;;;;8.60;5.00;;;1.50;99.90;;;;;;5068634;28;20912;-68
2022/01/12 06:44:15;;;;;;;8.10;5.17;;;1.60;99.90;;;;;;5068783;28;20554;-67
2022/01/12 06:46:44;;;;;;;12.30;6.53;;;1.70;99.90;;;;;;5068504;28;20448;-67
2022/01/12 06:49:12;;;;;;;9.87;6.63;;;2.00;99.90;;;;;;5068537;28;20483;-70
2022/01/12 06:51:39;;;;;;;11.27;6.00;;;1.90;99.90;;;;;;5071400;28;20459;-66
2022/01/12 06:54:06;;;;;;;10.63;6.20;;;2.20;99.90;;;;;;5072086;28;20597;-66
2022/01/12 06:56:34;;;;;;;10.57;5.67;;;2.40;99.90;;;;;;5072316;28;20533;-66
2022/01/12 06:59:03;;;;;;;9.37;5.57;;;2.50;99.90;;;;;;5072184;28;21410;-66
2022/01/12 07:01:30;;;;;;;13.17;6.20;;;2.70;99.90;;;;;;5071515;28;20868;-67
2022/01/12 07:03:57;;;;;;;10.87;6.40;;;2.40;99.90;;;;;;5071710;28;20483;-67
2022/01/12 07:06:24;;;;;;;13.23;8.80;;;2.60;99.90;;;;;;5072173;28;20456;-67
2022/01/12 07:08:52;;;;;;;9.43;5.80;;;2.60;99.90;;;;;;5071952;28;20458;-66
2022/01/12 07:11:19;;;;;;;11.30;5.67;;;2.60;99.90;;;;;;5071822;28;20454;-65
2022/01/12 07:13:46;;;;;;;10.30;5.33;;;2.60;99.90;;;;;;5071874;28;20527;-66
2022/01/12 07:16:15;;;;;;;10.00;6.47;;;2.70;99.90;;;;;;5071486;28;20529;-65
2022/01/12 07:18:42;;;;;;;12.23;6.50;;;2.60;99.90;;;;;;5071370;28;20484;-66
2022/01/12 07:21:09;;;;;;;13.73;6.93;;;2.60;99.90;;;;;;5071388;28;21000;-66
2022/01/12 07:23:36;;;;;;;9.67;5.13;;;2.50;99.90;;;;;;5071633;28;20518;-65
2022/01/12 07:26:08;;;;;;;7.63;4.80;;;2.50;99.90;;;;;;5071532;28;20455;-66
2022/01/12 07:28:35;;;;;;;10.63;5.77;;;2.50;99.90;;;;;;5071642;28;20542;-66
2022/01/12 07:31:02;;;;;;;7.60;5.17;;;2.50;99.90;;;;;;5071531;28;20555;-67
2022/01/12 07:33:32;;;;;;;12.23;6.10;;;2.50;99.90;;;;;;5071448;28;20465;-66
2022/01/12 07:35:59;;;;;;;10.03;5.70;;;2.50;99.90;;;;;;5071444;28;20540;-65
2022/01/12 07:38:26;;;;;;;10.03;5.70;;;2.40;99.90;;;;;;5071202;28;20477;-66
2022/01/12 07:40:54;;;;;;;9.80;5.80;;;2.50;99.90;;;;;;5071315;28;20452;-66
2022/01/12 07:43:21;;;;;;;10.23;5.43;;;2.60;99.90;;;;;;5070769;28;20496;-65
2022/01/12 07:45:48;;;;;;;9.33;4.80;;;2.70;99.90;;;;;;5071108;28;20456;-65
2022/01/12 07:48:15;;;;;;;9.30;5.20;;;2.80;99.90;;;;;;5070911;28;20450;-66
2022/01/12 07:50:44;;;;;;;7.37;4.40;;;3.00;99.90;;;;;;5071083;28;20456;-65
2022/01/12 07:53:12;;;;;;;11.53;6.20;;;3.10;99.90;;;;;;5071056;28;20482;-65
2022/01/12 07:55:39;;;;;;;10.27;5.40;;;3.20;99.90;;;;;;5071066;28;20504;-65
2022/01/12 07:58:06;;;;;;;7.90;4.87;;;3.30;99.90;;;;;;5070691;28;20531;-66
2022/01/12 08:00:33;;;;;;;8.40;5.30;;;3.40;99.90;;;;;;5070153;28;20520;-65
2022/01/12 08:03:00;;;;;;;12.27;5.03;;;3.50;99.90;;;;;;5069847;28;20486;-65
2022/01/12 08:05:27;;;;;;;13.70;5.27;;;3.70;99.80;;;;;;5070833;28;20516;-66
2022/01/12 08:07:56;;;;;;;10.27;5.13;;;3.70;99.50;;;;;;5070669;28;20456;-66
2022/01/12 08:10:23;;;;;;;7.17;4.47;;;3.70;98.80;;;;;;5070734;28;20818;-66
2022/01/12 08:12:50;;;;;;;7.63;5.17;;;3.70;98.20;;;;;;5070604;28;20537;-66
2022/01/12 08:15:19;;;;;;;8.80;5.10;;;3.60;98.80;;;;;;5070541;28;20483;-66
2022/01/12 08:17:46;;;;;;;7.33;4.30;;;3.70;99.20;;;;;;5070551;28;20444;-69
2022/01/12 08:20:17;;;;;;;7.07;4.10;;;3.80;99.70;;;;;;5070473;28;21032;-68
2022/01/12 08:22:44;;;;;;;7.03;4.20;;;4.00;98.10;;;;;;5070406;28;20530;-68
2022/01/12 08:25:13;;;;;;;7.10;4.07;;;4.00;98.10;;;;;;5070153;28;20464;-68
2022/01/12 08:27:40;;;;;;;11.73;4.47;;;4.30;97.70;;;;;;5070177;28;20459;-74
2022/01/12 08:30:16;;;;;;;7.53;4.00;;;4.50;97.80;;;;;;5070008;28;20988;-71
2022/01/12 08:32:43;;;;;;;8.87;4.67;;;4.60;97.40;;;;;;5070263;28;20832;-70
2022/01/12 08:35:11;;;;;;;7.83;4.60;;;4.40;95.80;;;;;;5071015;28;20942;-65
2022/01/12 08:37:38;;;;;;;9.77;4.50;;;4.60;96.80;;;;;;5070764;28;20507;-69
2022/01/12 08:40:06;;;;;;;9.57;4.47;;;5.00;95.90;;;;;;5070088;28;20477;-71
2022/01/12 08:42:35;;;;;;;7.40;4.10;;;5.20;95.10;;;;;;5070129;28;20480;-68
2022/01/12 08:45:02;;;;;;;7.27;4.17;;;5.10;94.10;;;;;;5070480;28;20471;-68
2022/01/12 08:47:30;;;;;;;9.17;4.33;;;5.20;94.10;;;;;;5070430;28;20811;-67
2022/01/12 08:49:57;;;;;;;11.10;4.63;;;5.30;94.00;;;;;;5070175;28;20556;-69
2022/01/12 08:52:24;;;;;;;12.80;3.80;;;5.60;92.60;;;;;;5069955;28;20532;-70
2022/01/12 08:54:52;;;;;;;15.23;5.33;;;5.50;92.40;;;;;;5069780;28;20933;-69
2022/01/12 08:57:19;;;;;;;7.83;4.17;;;5.70;91.60;;;;;;5069700;28;20469;-63
2022/01/12 08:59:48;;;;;;;6.00;4.00;;;5.50;92.50;;;;;;5069604;28;20477;-67
2022/01/12 09:02:15;;;;;;;7.80;3.93;;;5.50;90.90;;;;;;5069371;28;20495;-67
2022/01/12 09:04:43;;;;;;;9.33;3.93;;;5.60;91.00;;;;;;5069413;28;20463;-67
2022/01/12 09:07:11;;;;;;;8.43;4.57;;;5.70;91.40;;;;;;5069665;28;20448;-67
2022/01/12 09:09:38;;;;;;;7.63;4.07;;;5.80;92.20;;;;;;5069464;28;20874;-68
2022/01/12 09:12:06;;;;;;;6.37;3.77;;;6.30;89.70;;;;;;5069786;28;20457;-67
2022/01/12 09:14:34;;;;;;;7.27;3.90;;;6.40;87.80;;;;;;5068809;28;20457;-70
2022/01/12 09:17:02;;;;;;;7.30;3.93;;;6.40;86.10;;;;;;5069827;28;20449;-69
2022/01/12 09:19:30;;;;;;;6.07;3.67;;;6.30;86.00;;;;;;5069243;28;20479;-69
2022/01/12 09:21:57;;;;;;;6.70;3.87;;;5.90;85.00;;;;;;5069466;28;20461;-66
2022/01/12 09:24:25;;;;;;;10.00;4.20;;;5.50;85.90;;;;;;5069450;28;20514;-65
2022/01/12 09:26:52;;;;;;;6.80;3.70;;;5.10;86.50;;;;;;5069519;28;20460;-66
2022/01/12 09:29:19;;;;;;;6.87;3.23;;;4.70;89.50;;;;;;5069338;28;20476;-66
2022/01/12 09:31:47;;;;;;;7.93;3.83;;;4.50;90.30;;;;;;5069292;28;20463;-66
2022/01/12 09:34:15;;;;;;;5.77;3.20;;;4.40;90.70;;;;;;5069223;28;20456;-67
2022/01/12 09:36:43;;;;;;;5.50;2.90;;;4.30;90.50;;;;;;5069605;28;20452;-66
2022/01/12 09:39:10;;;;;;;7.13;3.20;;;4.20;90.60;;;;;;5069477;28;20498;-66
2022/01/12 09:41:37;;;;;;;5.90;3.50;;;4.20;90.30;;;;;;5069547;28;20447;-65
2022/01/12 09:44:05;;;;;;;5.17;3.20;;;4.10;90.70;;;;;;5069392;28;20530;-66
2022/01/12 09:46:32;;;;;;;6.50;3.53;;;4.10;90.70;;;;;;5068753;28;20451;-66
2022/01/12 09:49:03;;;;;;;7.03;3.57;;;4.00;91.10;;;;;;5069169;28;20528;-66
2022/01/12 09:51:31;;;;;;;5.63;3.00;;;3.70;91.10;;;;;;5069330;28;20458;-67
2022/01/12 09:53:59;;;;;;;7.90;3.90;;;3.70;91.20;;;;;;5069180;28;20450;-66
2022/01/12 09:56:29;;;;;;;7.57;3.30;;;3.60;91.90;;;;;;5069363;28;20980;-67
2022/01/12 09:58:57;;;;;;;5.67;3.20;;;3.50;92.00;;;;;;5068810;28;20482;-67
2022/01/12 10:01:28;;;;;;;7.70;4.00;;;3.40;91.40;;;;;;5068881;28;20491;-66
2022/01/12 10:04:07;;;;;;;7.60;3.50;;;3.40;91.70;;;;;;5068961;28;20485;-67
2022/01/12 10:06:38;;;;;;;7.60;4.90;;;3.20;92.20;;;;;;5069135;28;20539;-67
2022/01/12 10:09:05;;;;;;;7.50;4.50;;;3.10;93.00;;;;;;5068807;28;20480;-67
2022/01/12 10:11:33;;;;;;;6.37;3.57;;;3.10;94.80;;;;;;5068813;28;20522;-67
2022/01/12 10:14:02;;;;;;;5.93;2.97;;;3.30;94.60;;;;;;5069040;28;20442;-66
2022/01/12 10:16:30;;;;;;;6.47;3.83;;;3.40;94.90;;;;;;5068832;28;20456;-67
2022/01/12 10:18:59;;;;;;;8.80;4.20;;;3.50;93.50;;;;;;5068920;28;20834;-67
2022/01/12 10:21:31;;;;;;;6.97;4.30;;;3.70;93.20;;;;;;5069003;28;20457;-66
2022/01/12 10:24:03;;;;;;;5.63;3.67;;;3.60;93.60;;;;;;5068636;28;21084;-66
2022/01/12 10:26:37;;;;;;;8.03;4.57;;;3.60;94.10;;;;;;5071636;28;20452;-66
2022/01/12 10:29:07;;;;;;;7.50;3.57;;;3.50;93.40;;;;;;5072257;28;20964;-67
2022/01/12 10:31:45;;;;;;;7.60;4.20;;;3.50;93.90;;;;;;5072611;28;20479;-66
2022/01/12 10:34:12;;;;;;;6.00;4.13;;;3.50;93.20;;;;;;5072567;28;20456;-66
2022/01/12 10:36:40;;;;;;;6.60;3.50;;;3.60;93.10;;;;;;5072536;28;20448;-66
2022/01/12 10:39:14;;;;;;;6.87;3.53;;;3.40;93.20;;;;;;5072458;28;20648;-66
2022/01/12 10:41:52;;;;;;;9.33;4.83;;;3.40;93.00;;;;;;5072452;28;20510;-66
2022/01/12 10:44:23;;;;;;;7.00;3.60;;;3.50;93.00;;;;;;5072307;28;20485;-67
2022/01/12 10:46:51;;;;;;;5.80;3.77;;;3.60;92.20;;;;;;5072149;28;20459;-67
2022/01/12 10:49:22;;;;;;;6.70;3.70;;;3.50;92.60;;;;;;5072107;28;20892;-67
2022/01/12 10:51:56;;;;;;;6.80;3.50;;;3.40;92.40;;;;;;5072233;28;20455;-66
2022/01/12 10:54:25;;;;;;;5.70;3.43;;;3.20;92.90;;;;;;5072023;28;20501;-66
2022/01/12 10:56:52;;;;;;;9.23;4.40;;;3.30;93.20;;;;;;5072325;28;21077;-66
2022/01/12 10:59:21;;;;;;;5.90;3.93;;;3.40;92.60;;;;;;5072060;28;20476;-67
2022/01/12 11:01:48;;;;;;;5.57;3.53;;;3.50;92.90;;;;;;5071650;28;20538;-66
2022/01/12 11:04:15;;;;;;;8.43;3.70;;;3.50;92.30;;;;;;5071865;28;20487;-67
2022/01/12 11:06:42;;;;;;;5.53;2.70;;;3.50;92.40;;;;;;5071975;28;20458;-66
2022/01/12 11:09:09;;;;;;;5.30;2.67;;;3.40;91.90;;;;;;5071685;28;20516;-66
2022/01/12 11:11:37;;;;;;;7.47;4.60;;;3.40;91.50;;;;;;5071877;28;20509;-66
2022/01/12 11:14:05;;;;;;;5.93;3.60;;;3.30;91.60;;;;;;5071521;28;20447;-66
2022/01/12 11:16:32;;;;;;;11.40;3.37;;;3.30;92.60;;;;;;5071708;28;20940;-65
2022/01/12 11:19:00;;;;;;;8.37;3.40;;;3.30;93.00;;;;;;5071614;28;20484;-66
2022/01/12 11:21:35;;;;;;;6.47;3.37;;;3.40;92.70;;;;;;5071501;28;20550;-66
2022/01/12 11:24:05;;;;;;;5.57;2.73;;;3.40;92.40;;;;;;5071529;28;20591;-67
2022/01/12 11:26:33;;;;;;;4.93;2.80;;;3.40;92.10;;;;;;5071334;28;20463;-66
2022/01/12 11:29:04;;;;;;;5.53;3.40;;;3.60;91.60;;;;;;5071289;28;20471;-66
2022/01/12 11:31:34;;;;;;;5.60;2.83;;;3.60;92.10;;;;;;5071300;28;20455;-65
2022/01/12 11:34:01;;;;;;;7.17;3.97;;;3.70;92.10;;;;;;5071298;28;20516;-66
2022/01/12 11:36:35;;;;;;;9.30;3.43;;;3.80;91.20;;;;;;5070372;28;20454;-66
2022/01/12 11:39:07;;;;;;;6.33;3.43;;;3.80;91.40;;;;;;5070826;28;20473;-66
2022/01/12 11:41:36;;;;;;;7.33;3.80;;;3.80;91.50;;;;;;5071199;28;20823;-66
2022/01/12 11:44:10;;;;;;;6.03;3.77;;;3.80;91.00;;;;;;5071327;28;21129;-65
2022/01/12 11:46:46;;;;;;;6.07;3.50;;;3.70;90.70;;;;;;5071352;28;20454;-66
2022/01/12 11:49:24;;;;;;;5.73;3.40;;;3.80;90.40;;;;;;5071387;28;21020;-66
2022/01/12 11:51:51;;;;;;;6.57;3.50;;;3.80;91.50;;;;;;5070770;28;20981;-66
2022/01/12 11:54:21;;;;;;;5.80;3.07;;;3.80;91.30;;;;;;5071397;28;20449;-67
2022/01/12 11:56:53;;;;;;;9.63;3.40;;;4.00;90.30;;;;;;5071262;28;20464;-67
2022/01/12 11:59:23;;;;;;;6.10;3.07;;;4.00;90.30;;;;;;5070492;28;20477;-67
2022/01/12 12:01:52;;;;;;;6.90;3.00;;;4.10;90.40;;;;;;5070466;28;20483;-67
2022/01/12 12:04:25;;;;;;;5.33;3.13;;;4.10;90.60;;;;;;5070930;28;20554;-65
2022/01/12 12:07:04;;;;;;;6.60;3.10;;;4.10;90.40;;;;;;5070676;28;20504;-67
2022/01/12 12:09:39;;;;;;;7.17;2.97;;;4.20;88.40;;;;;;5070804;28;20533;-66
2022/01/12 12:12:14;;;;;;;8.27;3.60;;;4.20;88.00;;;;;;5070672;28;20457;-65
2022/01/12 12:14:44;;;;;;;5.60;2.93;;;4.30;86.90;;;;;;5070571;28;20444;-65
2022/01/12 12:17:11;;;;;;;6.23;3.00;;;4.30;87.60;;;;;;5070635;28;20450;-65
2022/01/12 12:19:38;;;;;;;6.20;3.60;;;4.50;86.90;;;;;;5070468;28;20476;-66
2022/01/12 12:22:11;;;;;;;6.90;3.30;;;4.50;85.90;;;;;;5070556;28;20860;-66
2022/01/12 12:24:38;;;;;;;5.80;3.30;;;4.40;89.70;;;;;;5070093;28;20591;-66
2022/01/12 12:27:09;;;;;;;5.63;3.10;;;4.30;88.30;;;;;;5070484;28;20459;-66
2022/01/12 12:29:37;;;;;;;5.73;2.70;;;4.40;85.50;;;;;;5070280;28;20556;-66
2022/01/12 12:32:12;;;;;;;8.60;3.47;;;4.40;86.60;;;;;;5070259;28;20460;-66
2022/01/12 12:34:40;;;;;;;5.87;3.53;;;4.40;87.00;;;;;;5070542;28;20818;-67
2022/01/12 12:37:09;;;;;;;5.57;3.00;;;4.50;85.00;;;;;;5070107;28;20456;-67
2022/01/12 12:39:38;;;;;;;6.00;3.40;;;4.50;86.60;;;;;;5070039;28;21020;-67
2022/01/12 12:42:14;;;;;;;11.73;4.37;;;4.30;87.70;;;;;;5069845;28;20451;-65
2022/01/12 12:44:41;;;;;;;6.30;3.67;;;4.40;84.80;;;;;;5069989;28;20574;-63
2022/01/12 12:47:13;;;;;;;8.70;4.13;;;4.40;84.20;;;;;;5070000;28;20456;-67
2022/01/12 12:49:51;;;;;;;6.20;3.87;;;4.40;85.00;;;;;;5069865;28;20548;-66
2022/01/12 12:52:27;;;;;;;6.27;3.53;;;4.30;86.00;;;;;;5070041;28;20508;-69
2022/01/12 12:54:55;;;;;;;8.60;3.47;;;4.40;84.70;;;;;;5069794;28;20452;-66
2022/01/12 12:57:22;;;;;;;7.80;4.00;;;4.40;84.80;;;;;;5069947;28;20840;-66
2022/01/12 12:59:51;;;;;;;6.87;4.60;;;4.30;84.10;;;;;;5069257;28;20531;-68
2022/01/12 13:02:19;;;;;;;6.43;4.30;;;4.20;86.10;;;;;;5069619;28;20521;-68
2022/01/12 13:04:46;;;;;;;7.43;4.77;;;4.10;86.60;;;;;;5069611;28;20491;-68
2022/01/12 13:07:17;;;;;;;7.47;3.90;;;4.00;88.80;;;;;;5069694;28;20516;-68
2022/01/12 13:09:44;;;;;;;7.30;4.00;;;3.90;90.00;;;;;;5069490;28;20482;-68
2022/01/12 13:12:12;;;;;;;8.23;4.50;;;4.10;86.00;;;;;;5069758;28;20525;-65
2022/01/12 13:14:43;;;;;;;6.47;4.20;;;4.00;89.90;;;;;;5069728;28;20451;-65
2022/01/12 13:17:10;;;;;;;6.20;4.10;;;4.20;87.30;;;;;;5069523;28;20456;-66
2022/01/12 13:22:40;;;;;;;10.00;4.00;;;4.20;85.90;;;;;;4968093;28;20449;-69
2022/01/12 13:25:09;;;;;;;8.40;4.40;;;4.20;85.60;;;;;;5048115;28;20480;-65
2022/01/12 13:27:38;;;;;;;11.43;5.10;;;4.10;87.50;;;;;;5069522;28;20868;-66
2022/01/12 13:30:07;;;;;;;7.33;4.20;;;4.20;88.50;;;;;;5069292;28;20534;-65
2022/01/12 13:32:36;;;;;;;9.67;4.87;;;4.20;86.50;;;;;;5069457;28;20483;-66
2022/01/12 13:35:09;;;;;;;9.80;5.20;;;4.10;88.40;;;;;;5069349;28;20749;-66
2022/01/12 13:37:36;;;;;;;8.17;4.80;;;4.10;86.40;;;;;;5069443;28;20777;-67
2022/01/12 13:40:09;;;;;;;7.87;5.00;;;4.10;88.10;;;;;;5068897;28;20465;-66
2022/01/12 13:42:48;;;;;;;9.00;6.43;;;4.20;86.90;;;;;;5069147;28;20437;-66
2022/01/12 13:45:16;;;;;;;7.20;4.50;;;4.20;85.80;;;;;;5069228;28;20491;-66
2022/01/12 13:47:49;;;;;;;9.70;5.33;;;4.10;85.80;;;;;;5068853;28;20461;-65
2022/01/12 13:50:19;;;;;;;8.40;5.17;;;4.10;84.40;;;;;;5069032;28;20477;-69
2022/01/12 13:52:54;;;;;;;11.50;6.10;;;4.00;86.30;;;;;;5069194;28;20456;-69
2022/01/12 13:55:22;;;;;;;9.17;5.43;;;3.90;86.00;;;;;;5069203;28;20866;-69
2022/01/12 13:57:57;;;;;;;10.13;5.40;;;4.00;87.30;;;;;;5069247;28;20456;-71
2022/01/12 14:00:24;;;;;;;10.03;6.13;;;4.00;83.90;;;;;;5070006;28;20894;-69
2022/01/12 14:02:51;;;;;;;11.10;6.77;;;4.00;83.70;;;;;;5072541;28;20487;-71
2022/01/12 14:05:20;;;;;;;14.70;8.00;;;3.90;86.00;;;;;;5072956;28;20486;-67
2022/01/12 14:07:59;;;;;;;12.13;7.70;;;3.90;85.10;;;;;;5073082;28;20480;-66
2022/01/12 14:10:28;;;;;;;12.63;8.03;;;3.90;85.30;;;;;;5072914;28;20462;-66
2022/01/12 14:12:55;;;;;;;13.33;7.17;;;3.90;85.30;;;;;;5073011;28;20454;-67
2022/01/12 14:15:24;;;;;;;12.23;7.40;;;3.80;87.70;;;;;;5072872;28;20540;-67